Main page
METAR-TAF:

METAR-TAF

Airports :

Bou Saada Airport

Bou Saâda, Algeria

latitude: 35-20N, longitude: 004-12E, elevation: 461 m

Current weather observation

The report was made 2 hours and 17 minutes ago, at 18:00 UTC
Wind 12 kt from the South
Temperature 39°C
Humidity 12%
Pressure 1013 hPa
Visibility: 8000 m

METAR: DAAD 281800Z 18012KT 8000 NSC 39/04 Q1013

Time: 21:17 (20:17 UTC)

Forecast

The report was made 3 hours and 17 minutes ago, at 17:00 UTC
Forecast valid from 28 at 18 UTC to 29 at 03 UTC
Wind 2 kt from variable directions
Visibility: 8000 m
Probability 30% :
Temporary
from 28 at 18 UTC to 28 at 21 UTC
Visibility: 4000 m
haze

TAF: DAAD 281700Z 2818/2903 VRB02KT 8000 NSC PROB30 TEMPO 2818/2821 4000 HZ

Weather observations and forecasts of more than 4000 airports (METAR and TAF reports).

The available stations are represented by yellow and red dots on the map.

Hover mouse over dot to see the name of the station.

Then click to see weather observations and forecasts.

To change the map : click on the green buttons with a black cross to zoom in, on the green button with a dash to zoom out, or on the green arrows for adjacent maps.


METAR-TAF: